Time;durP1;ratioP1;P1;durP2;ratioP2;P2;SDS_P1;SDS_P2;PMS_P1;PMS_P2;Temp;Humidity;BMP_temperature;BMP_pressure;BME280_temperature;BME280_humidity;BME280_pressure;Samples;Min_cycle;Max_cycle;Signal;HPM_P1;HPM_P2
2022/07/07 00:01:13;;;;;;;3.77;2.60;;;;;;;;;;5068584;28;20208;-82
2022/07/07 00:03:42;;;;;;;3.60;1.87;;;;;;;;;;5071652;28;20199;-82
2022/07/07 00:06:11;;;;;;;2.00;1.80;;;;;;;;;;5071411;28;20226;-82
2022/07/07 00:08:39;;;;;;;5.10;1.63;;;;;;;;;;5059567;28;20229;-82
2022/07/07 00:11:08;;;;;;;2.40;1.10;;;;;;;;;;5058765;28;20210;-82
2022/07/07 00:13:37;;;;;;;1.33;0.73;;;;;;;;;;5066296;28;20206;-82
2022/07/07 00:16:07;;;;;;;4.97;1.53;;;;;;;;;;5065881;28;20217;-82
2022/07/07 00:18:36;;;;;;;1.90;1.40;;;;;;;;;;5071677;28;20230;-81
2022/07/07 00:21:04;;;;;;;4.23;1.93;;;;;;;;;;5059433;28;20249;-81
2022/07/07 00:23:33;;;;;;;1.43;1.23;;;;;;;;;;5069949;28;20201;-81
2022/07/07 00:26:02;;;;;;;1.57;1.23;;;;;;;;;;5060577;28;20194;-81
2022/07/07 00:28:30;;;;;;;4.47;2.03;;;;;;;;;;5055014;28;20271;-82
2022/07/07 00:30:59;;;;;;;2.60;1.80;;;;;;;;;;5071541;28;20206;-82
2022/07/07 00:33:29;;;;;;;1.40;1.30;;;;;;;;;;5057528;28;20278;-81
2022/07/07 00:35:57;;;;;;;1.53;1.43;;;;;;;;;;5071863;28;20210;-81
2022/07/07 00:38:25;;;;;;;5.53;2.17;;;;;;;;;;5071434;28;20202;-82
2022/07/07 00:40:55;;;;;;;1.10;1.00;;;;;;;;;;5072378;28;20206;-81
2022/07/07 00:43:23;;;;;;;3.83;1.77;;;;;;;;;;5074461;28;20207;-81
2022/07/07 00:45:52;;;;;;;3.40;2.20;;;;;;;;;;5072259;28;20231;-81
2022/07/07 00:48:21;;;;;;;4.80;2.10;;;;;;;;;;5066621;28;20212;-81
2022/07/07 00:50:51;;;;;;;3.40;2.20;;;;;;;;;;5069942;28;20279;-81
2022/07/07 00:53:19;;;;;;;4.83;0.97;;;;;;;;;;5062577;28;20253;-82
2022/07/07 00:55:48;;;;;;;4.33;1.40;;;;;;;;;;5075990;28;20301;-82
2022/07/07 00:58:16;;;;;;;2.27;1.77;;;;;;;;;;5061365;28;20243;-81
2022/07/07 01:00:45;;;;;;;3.17;2.00;;;;;;;;;;5063209;28;20195;-81
2022/07/07 01:03:14;;;;;;;3.93;1.87;;;;;;;;;;5056137;28;20274;-81
2022/07/07 01:05:43;;;;;;;4.60;1.83;;;;;;;;;;5055150;28;20192;-81
2022/07/07 01:08:15;;;;;;;2.77;1.47;;;;;;;;;;5054696;28;20205;-81
2022/07/07 01:10:43;;;;;;;5.70;3.50;;;;;;;;;;5055838;28;20281;-82
2022/07/07 01:13:12;;;;;;;6.17;2.33;;;;;;;;;;5068677;28;20198;-81
2022/07/07 01:15:41;;;;;;;1.63;1.53;;;;;;;;;;5077639;28;20225;-81
2022/07/07 01:18:09;;;;;;;4.17;1.80;;;;;;;;;;5091321;28;20201;-81
2022/07/07 01:20:38;;;;;;;3.53;1.77;;;;;;;;;;5075578;28;20193;-80
2022/07/07 01:23:08;;;;;;;4.17;2.37;;;;;;;;;;5060290;28;20358;-81
2022/07/07 01:25:36;;;;;;;5.60;2.57;;;;;;;;;;5067290;28;20226;-81
2022/07/07 01:28:05;;;;;;;4.40;2.40;;;;;;;;;;5068573;28;20205;-81
2022/07/07 01:30:33;;;;;;;6.17;1.90;;;;;;;;;;5060166;28;20190;-81
2022/07/07 01:33:01;;;;;;;4.43;2.23;;;;;;;;;;5074562;28;20206;-81
2022/07/07 01:35:30;;;;;;;7.47;2.20;;;;;;;;;;5074124;28;20202;-81
2022/07/07 01:37:58;;;;;;;2.17;1.27;;;;;;;;;;5057926;28;20202;-81
2022/07/07 01:40:28;;;;;;;1.63;1.37;;;;;;;;;;5059845;28;20197;-80
2022/07/07 01:42:57;;;;;;;6.93;2.33;;;;;;;;;;5074084;28;20235;-81
2022/07/07 01:45:25;;;;;;;4.57;1.63;;;;;;;;;;5069850;28;20206;-81
2022/07/07 01:47:53;;;;;;;6.03;1.80;;;;;;;;;;5074100;28;20257;-81
2022/07/07 01:50:23;;;;;;;5.20;2.40;;;;;;;;;;5062832;28;20202;-82
2022/07/07 01:52:51;;;;;;;2.83;2.17;;;;;;;;;;5058367;28;20204;-82
2022/07/07 01:55:20;;;;;;;3.37;1.50;;;;;;;;;;5074109;28;20259;-82
2022/07/07 01:57:49;;;;;;;6.83;2.20;;;;;;;;;;5071111;28;20312;-82
2022/07/07 02:00:18;;;;;;;7.97;2.07;;;;;;;;;;5063069;28;20210;-82
2022/07/07 02:02:46;;;;;;;6.83;2.57;;;;;;;;;;5059470;28;20208;-82
2022/07/07 02:05:15;;;;;;;10.80;2.40;;;;;;;;;;5073884;28;20199;-81
2022/07/07 02:07:45;;;;;;;3.37;1.73;;;;;;;;;;5073464;28;20198;-81
2022/07/07 02:11:12;;;;;;;2.77;1.30;;;;;;;;;;5061531;28;20199;-81
2022/07/07 02:13:04;;;;;;;6.17;2.03;;;;;;;;;;5071335;28;20211;-81
2022/07/07 02:15:33;;;;;;;3.70;0.90;;;;;;;;;;5053426;28;20199;-81
2022/07/07 02:18:01;;;;;;;1.50;1.40;;;;;;;;;;5068141;28;20235;-81
2022/07/07 02:20:29;;;;;;;4.00;1.53;;;;;;;;;;5623218;22;20339;-79
2022/07/07 02:22:58;;;;;;;0.80;0.80;;;;;;;;;;5012606;28;20204;-80
2022/07/07 02:25:26;;;;;;;6.70;1.83;;;;;;;;;;5013351;28;20205;-78
2022/07/07 02:27:55;;;;;;;6.33;1.73;;;;;;;;;;5014549;28;20209;-80
2022/07/07 02:30:25;;;;;;;5.80;2.37;;;;;;;;;;5034029;28;20212;-80
2022/07/07 02:32:53;;;;;;;6.40;2.03;;;;;;;;;;5021079;28;20214;-80
2022/07/07 02:35:22;;;;;;;6.03;1.57;;;;;;;;;;5017932;28;20201;-80
2022/07/07 02:37:50;;;;;;;6.43;1.93;;;;;;;;;;5017538;28;20230;-80
2022/07/07 02:40:19;;;;;;;3.60;1.60;;;;;;;;;;5016902;28;20206;-80
2022/07/07 02:42:47;;;;;;;2.77;1.33;;;;;;;;;;5025358;28;20208;-80
2022/07/07 02:45:15;;;;;;;6.13;1.43;;;;;;;;;;5023975;28;20199;-80
2022/07/07 02:47:45;;;;;;;8.30;2.10;;;;;;;;;;5027319;28;20215;-80
2022/07/07 02:50:14;;;;;;;0.87;0.87;;;;;;;;;;5013107;28;20258;-81
2022/07/07 02:52:42;;;;;;;5.63;1.33;;;;;;;;;;5013219;28;20238;-81
2022/07/07 02:55:10;;;;;;;0.83;0.67;;;;;;;;;;5014257;28;20204;-81
2022/07/07 02:57:39;;;;;;;0.80;0.57;;;;;;;;;;5012844;28;20211;-81
2022/07/07 03:00:13;;;;;;;3.13;1.50;;;;;;;;;;4999538;28;20197;-81
2022/07/07 03:02:41;;;;;;;1.67;1.10;;;;;;;;;;5025350;28;20208;-81
2022/07/07 03:05:12;;;;;;;1.27;1.20;;;;;;;;;;5018167;28;20195;-81
2022/07/07 03:07:40;;;;;;;5.63;1.43;;;;;;;;;;5021186;28;20295;-81
2022/07/07 03:10:09;;;;;;;2.77;1.20;;;;;;;;;;5014330;28;20234;-81
2022/07/07 03:12:37;;;;;;;0.43;0.43;;;;;;;;;;5023014;28;20209;-81
2022/07/07 03:15:06;;;;;;;1.83;1.40;;;;;;;;;;5018422;28;20208;-81
2022/07/07 03:17:34;;;;;;;4.87;0.70;;;;;;;;;;5032327;28;20223;-81
2022/07/07 03:20:03;;;;;;;1.20;0.77;;;;;;;;;;5019432;28;20203;-81
2022/07/07 03:22:33;;;;;;;2.60;1.10;;;;;;;;;;5032311;28;20214;-81
2022/07/07 03:25:03;;;;;;;3.50;1.17;;;;;;;;;;5018850;28;20352;-81
2022/07/07 03:27:31;;;;;;;1.83;0.97;;;;;;;;;;5032074;28;20195;-81
2022/07/07 03:30:00;;;;;;;6.17;2.03;;;;;;;;;;5019576;28;20342;-81
2022/07/07 03:32:28;;;;;;;1.63;1.53;;;;;;;;;;5026168;28;20207;-81
2022/07/07 03:34:57;;;;;;;3.33;1.70;;;;;;;;;;5024180;28;20313;-81
2022/07/07 03:37:25;;;;;;;2.60;1.90;;;;;;;;;;5028034;28;20224;-81
2022/07/07 03:39:55;;;;;;;6.40;2.33;;;;;;;;;;5013628;28;20203;-81
2022/07/07 03:42:23;;;;;;;3.83;1.40;;;;;;;;;;5027258;28;20204;-81
2022/07/07 03:44:52;;;;;;;1.83;1.17;;;;;;;;;;5022107;28;20202;-80
2022/07/07 03:47:20;;;;;;;14.53;2.20;;;;;;;;;;5018559;28;20211;-81
2022/07/07 03:49:49;;;;;;;5.07;2.10;;;;;;;;;;5020929;28;20203;-80
2022/07/07 03:52:18;;;;;;;2.30;1.43;;;;;;;;;;5018536;28;20286;-80
2022/07/07 03:54:46;;;;;;;6.00;1.20;;;;;;;;;;5019284;28;20208;-80
2022/07/07 03:57:16;;;;;;;4.13;0.90;;;;;;;;;;5020232;28;20310;-81
2022/07/07 03:59:44;;;;;;;2.37;1.13;;;;;;;;;;5012268;28;20215;-81
2022/07/07 04:02:13;;;;;;;5.03;2.20;;;;;;;;;;5023506;28;20324;-81
2022/07/07 04:04:41;;;;;;;7.63;2.53;;;;;;;;;;5014947;28;20219;-81
2022/07/07 04:07:10;;;;;;;2.60;1.03;;;;;;;;;;5013432;28;20208;-81
2022/07/07 04:09:38;;;;;;;11.27;2.30;;;;;;;;;;5027099;28;20196;-81
2022/07/07 04:12:07;;;;;;;8.60;3.10;;;;;;;;;;5020747;28;20250;-81
2022/07/07 04:14:37;;;;;;;9.13;1.73;;;;;;;;;;5030761;28;20199;-81
2022/07/07 04:17:06;;;;;;;4.93;1.77;;;;;;;;;;5014883;28;20251;-81
2022/07/07 04:19:34;;;;;;;8.43;2.70;;;;;;;;;;5017317;28;20205;-81
2022/07/07 04:22:03;;;;;;;5.27;1.77;;;;;;;;;;5030421;28;20228;-81
2022/07/07 04:24:31;;;;;;;8.80;2.47;;;;;;;;;;5029552;28;20203;-81
2022/07/07 04:27:00;;;;;;;3.03;1.30;;;;;;;;;;5031239;28;20294;-81
2022/07/07 04:29:28;;;;;;;3.17;2.03;;;;;;;;;;5027352;28;20203;-81
2022/07/07 04:31:58;;;;;;;6.73;2.20;;;;;;;;;;5032560;28;20264;-81
2022/07/07 04:34:27;;;;;;;4.87;2.33;;;;;;;;;;5017031;28;20200;-81
2022/07/07 04:36:55;;;;;;;6.40;2.43;;;;;;;;;;5018267;28;20235;-81
2022/07/07 04:39:23;;;;;;;6.83;2.03;;;;;;;;;;5035815;28;20204;-81
2022/07/07 04:41:52;;;;;;;4.97;1.90;;;;;;;;;;5035359;28;20211;-81
2022/07/07 04:44:20;;;;;;;2.77;1.17;;;;;;;;;;5030276;28;20242;-81
2022/07/07 04:46:49;;;;;;;3.27;1.50;;;;;;;;;;5016721;28;20204;-81
2022/07/07 04:49:19;;;;;;;6.43;1.90;;;;;;;;;;5018189;28;20199;-81
2022/07/07 04:51:48;;;;;;;5.10;1.77;;;;;;;;;;5035264;28;20208;-81
2022/07/07 04:54:16;;;;;;;2.03;1.27;;;;;;;;;;5019337;28;20203;-82
2022/07/07 04:56:45;;;;;;;2.00;1.77;;;;;;;;;;5024363;28;20205;-82
2022/07/07 04:59:13;;;;;;;1.50;1.17;;;;;;;;;;5022241;28;20211;-81
2022/07/07 05:01:41;;;;;;;6.63;2.03;;;;;;;;;;5028178;28;20195;-81
2022/07/07 05:04:10;;;;;;;5.27;1.23;;;;;;;;;;5014952;28;20216;-82
2022/07/07 05:06:40;;;;;;;3.00;1.33;;;;;;;;;;5035557;28;20199;-82
2022/07/07 05:09:09;;;;;;;11.27;2.63;;;;;;;;;;5034975;28;20198;-83
2022/07/07 05:11:38;;;;;;;4.23;2.43;;;;;;;;;;5020580;28;20190;-81
2022/07/07 05:14:06;;;;;;;4.13;1.87;;;;;;;;;;5023914;28;20213;-81
2022/07/07 05:16:34;;;;;;;3.80;1.67;;;;;;;;;;5032027;28;20191;-81
2022/07/07 05:19:03;;;;;;;5.50;1.53;;;;;;;;;;5024818;28;20219;-81
2022/07/07 05:21:32;;;;;;;3.23;1.87;;;;;;;;;;5016637;28;20239;-80
2022/07/07 05:24:01;;;;;;;2.17;1.47;;;;;;;;;;5035748;28;20227;-80
2022/07/07 05:26:30;;;;;;;1.10;1.00;;;;;;;;;;5020395;28;20569;-81
2022/07/07 05:28:58;;;;;;;7.20;1.30;;;;;;;;;;5015022;28;20192;-81
2022/07/07 05:31:26;;;;;;;6.87;1.47;;;;;;;;;;5015880;28;20207;-81
2022/07/07 05:33:55;;;;;;;2.53;1.17;;;;;;;;;;5014711;28;20245;-81
2022/07/07 05:36:24;;;;;;;3.07;1.20;;;;;;;;;;5014492;28;20207;-81
2022/07/07 05:38:52;;;;;;;1.43;1.30;;;;;;;;;;5033193;28;20234;-81
2022/07/07 05:41:22;;;;;;;3.03;1.83;;;;;;;;;;5034193;28;20211;-81
2022/07/07 05:43:50;;;;;;;3.40;1.80;;;;;;;;;;5033244;28;20217;-81
2022/07/07 05:46:19;;;;;;;3.07;1.60;;;;;;;;;;5001146;28;20203;-80
2022/07/07 05:48:50;;;;;;;5.47;1.40;;;;;;;;;;5026900;28;20225;-81
2022/07/07 05:51:19;;;;;;;1.27;0.60;;;;;;;;;;5019867;28;20206;-81
2022/07/07 05:53:47;;;;;;;4.23;1.77;;;;;;;;;;5023356;28;20203;-80
2022/07/07 05:56:16;;;;;;;5.83;2.40;;;;;;;;;;5014409;28;20188;-81
2022/07/07 05:58:45;;;;;;;5.43;1.20;;;;;;;;;;5013855;28;20285;-80
2022/07/07 06:01:14;;;;;;;3.47;1.73;;;;;;;;;;5017120;28;20203;-81
2022/07/07 06:03:42;;;;;;;11.60;1.33;;;;;;;;;;5024181;28;20211;-81
2022/07/07 06:06:11;;;;;;;2.83;1.23;;;;;;;;;;5013961;28;20233;-81
2022/07/07 06:08:40;;;;;;;6.93;1.70;;;;;;;;;;5014997;28;20199;-81
2022/07/07 06:11:09;;;;;;;5.10;1.50;;;;;;;;;;5028115;28;20206;-81
2022/07/07 06:13:38;;;;;;;5.33;2.33;;;;;;;;;;5022374;28;20206;-80
2022/07/07 06:16:08;;;;;;;3.80;1.57;;;;;;;;;;5020223;28;20238;-79
2022/07/07 06:18:36;;;;;;;8.27;2.03;;;;;;;;;;5013691;28;20221;-78
2022/07/07 06:21:05;;;;;;;3.37;1.67;;;;;;;;;;5013884;28;20250;-80
2022/07/07 06:23:33;;;;;;;7.53;1.07;;;;;;;;;;5032432;28;20211;-80
2022/07/07 06:26:04;;;;;;;8.23;2.10;;;;;;;;;;5022377;28;20204;-80
2022/07/07 06:28:34;;;;;;;3.43;1.63;;;;;;;;;;5013963;28;20219;-80
2022/07/07 06:31:03;;;;;;;4.63;1.17;;;;;;;;;;5024467;28;20208;-80
2022/07/07 06:33:33;;;;;;;0.80;0.80;;;;;;;;;;5030990;28;20208;-80
2022/07/07 06:36:02;;;;;;;2.00;1.20;;;;;;;;;;5023530;28;20246;-80
2022/07/07 06:38:30;;;;;;;1.27;0.93;;;;;;;;;;5031552;28;20211;-79
2022/07/07 06:40:59;;;;;;;3.97;1.00;;;;;;;;;;5013502;28;20200;-80
2022/07/07 06:43:28;;;;;;;2.10;1.20;;;;;;;;;;5027653;28;20199;-80
2022/07/07 06:45:57;;;;;;;0.97;0.93;;;;;;;;;;5033684;28;20195;-79
2022/07/07 06:48:26;;;;;;;7.57;1.33;;;;;;;;;;5024251;28;20204;-79
2022/07/07 06:50:56;;;;;;;3.37;1.00;;;;;;;;;;5029980;28;20207;-79
2022/07/07 06:53:25;;;;;;;1.90;1.17;;;;;;;;;;5025279;28;20216;-79
2022/07/07 06:55:54;;;;;;;9.30;1.73;;;;;;;;;;5027931;28;20202;-79
2022/07/07 06:58:22;;;;;;;9.80;3.23;;;;;;;;;;5020897;28;20204;-79
2022/07/07 07:00:51;;;;;;;3.07;1.90;;;;;;;;;;5018980;28;20220;-78
2022/07/07 07:03:20;;;;;;;1.63;1.53;;;;;;;;;;5016145;28;20208;-80
2022/07/07 07:05:50;;;;;;;1.07;0.80;;;;;;;;;;5008230;28;20254;-80
2022/07/07 07:08:26;;;;;;;1.13;0.53;;;;;;;;;;5001244;28;20200;-80
2022/07/07 07:10:55;;;;;;;3.87;1.43;;;;;;;;;;5013605;28;20271;-80
2022/07/07 07:13:23;;;;;;;3.23;1.27;;;;;;;;;;5012807;28;20200;-79
2022/07/07 07:15:52;;;;;;;0.67;0.60;;;;;;;;;;4993096;28;20302;-79
2022/07/07 07:18:24;;;;;;;7.43;2.17;;;;;;;;;;5001590;28;20213;-83
2022/07/07 07:20:53;;;;;;;1.43;0.70;;;;;;;;;;5000240;28;20327;-80
2022/07/07 07:23:22;;;;;;;2.23;1.20;;;;;;;;;;5002794;28;20195;-82
2022/07/07 07:26:01;;;;;;;1.10;0.83;;;;;;;;;;5003290;28;20199;-82
2022/07/07 07:28:30;;;;;;;2.73;1.37;;;;;;;;;;5006105;28;20212;-81
2022/07/07 07:31:00;;;;;;;2.63;1.17;;;;;;;;;;5006912;28;20212;-83
2022/07/07 07:33:30;;;;;;;3.00;1.33;;;;;;;;;;5000555;28;20199;-81
2022/07/07 07:36:02;;;;;;;3.97;1.47;;;;;;;;;;5002696;28;20201;-81
2022/07/07 07:38:38;;;;;;;2.30;0.93;;;;;;;;;;5022298;28;20208;-83
2022/07/07 07:41:09;;;;;;;1.47;1.20;;;;;;;;;;5005846;28;20192;-82
2022/07/07 07:43:39;;;;;;;5.77;1.50;;;;;;;;;;5005397;28;20285;-82
2022/07/07 07:46:09;;;;;;;4.87;1.07;;;;;;;;;;5006102;28;20243;-82
2022/07/07 07:48:42;;;;;;;1.17;0.87;;;;;;;;;;5012264;28;20275;-81
2022/07/07 07:51:12;;;;;;;2.37;0.90;;;;;;;;;;5006994;28;20231;-83
2022/07/07 07:53:40;;;;;;;2.37;1.00;;;;;;;;;;5021379;28;20210;-81
2022/07/07 07:56:11;;;;;;;2.47;2.23;;;;;;;;;;5004031;28;20195;-82
2022/07/07 07:58:39;;;;;;;9.17;1.63;;;;;;;;;;5001381;28;20351;-82
2022/07/07 08:01:10;;;;;;;2.20;0.90;;;;;;;;;;5003614;28;20216;-83
2022/07/07 08:03:39;;;;;;;4.47;1.23;;;;;;;;;;5020853;28;20286;-81
2022/07/07 08:06:08;;;;;;;2.70;0.97;;;;;;;;;;5013386;28;20209;-83
2022/07/07 08:08:37;;;;;;;4.90;1.70;;;;;;;;;;5010824;28;20218;-83
2022/07/07 08:11:07;;;;;;;2.27;1.13;;;;;;;;;;5010439;28;20207;-82
2022/07/07 08:13:37;;;;;;;2.63;1.27;;;;;;;;;;5004906;28;20200;-81
2022/07/07 08:16:07;;;;;;;2.57;1.23;;;;;;;;;;5007954;28;20255;-83
2022/07/07 08:18:40;;;;;;;1.47;1.20;;;;;;;;;;5024425;28;20234;-83
2022/07/07 08:21:09;;;;;;;8.20;2.27;;;;;;;;;;5013505;28;20263;-82
2022/07/07 08:23:39;;;;;;;2.67;1.07;;;;;;;;;;5012003;28;20268;-82
2022/07/07 08:26:13;;;;;;;2.00;1.10;;;;;;;;;;5021043;28;20199;-82
2022/07/07 08:28:47;;;;;;;4.30;1.43;;;;;;;;;;5021751;28;20209;-82
2022/07/07 08:31:15;;;;;;;5.60;2.20;;;;;;;;;;5005369;28;20204;-82
2022/07/07 08:33:46;;;;;;;3.90;0.97;;;;;;;;;;5010119;28;20207;-82
2022/07/07 08:36:17;;;;;;;5.27;2.57;;;;;;;;;;5019564;28;20209;-83
2022/07/07 08:38:48;;;;;;;4.17;1.40;;;;;;;;;;5010286;28;20215;-83
2022/07/07 08:41:25;;;;;;;5.67;2.10;;;;;;;;;;5005801;28;20214;-83
2022/07/07 08:44:02;;;;;;;3.30;1.30;;;;;;;;;;5010814;28;20218;-82
2022/07/07 08:46:40;;;;;;;2.60;0.90;;;;;;;;;;5013368;28;20250;-84
2022/07/07 08:49:13;;;;;;;1.23;0.83;;;;;;;;;;5005524;28;20239;-82
2022/07/07 08:51:58;;;;;;;4.37;1.27;;;;;;;;;;5010019;28;20278;-83
2022/07/07 08:54:30;;;;;;;8.43;2.13;;;;;;;;;;5008514;28;20208;-84
2022/07/07 08:57:15;;;;;;;7.93;1.57;;;;;;;;;;5010986;28;20214;-84
2022/07/07 08:59:45;;;;;;;1.90;1.50;;;;;;;;;;5009958;28;20264;-82
2022/07/07 09:02:20;;;;;;;1.90;1.37;;;;;;;;;;5007928;28;20207;-83
2022/07/07 09:04:51;;;;;;;3.30;0.97;;;;;;;;;;5024363;28;20196;-81
2022/07/07 09:07:20;;;;;;;1.00;0.73;;;;;;;;;;5007948;28;20196;-80
2022/07/07 09:09:52;;;;;;;6.97;1.63;;;;;;;;;;5012441;28;20266;-80
2022/07/07 09:12:21;;;;;;;4.37;2.20;;;;;;;;;;5009830;28;20205;-81
2022/07/07 09:14:52;;;;;;;3.67;1.67;;;;;;;;;;5010949;28;20274;-81
2022/07/07 09:17:30;;;;;;;4.13;2.23;;;;;;;;;;5008820;28;20291;-82
2022/07/07 09:20:03;;;;;;;3.37;1.57;;;;;;;;;;5006152;28;20233;-82
2022/07/07 09:22:45;;;;;;;3.97;1.57;;;;;;;;;;5032051;28;20203;-82
2022/07/07 09:25:17;;;;;;;1.40;0.63;;;;;;;;;;5048910;28;20253;-81
2022/07/07 09:27:53;;;;;;;6.17;2.13;;;;;;;;;;5030102;28;20201;-83
2022/07/07 09:30:31;;;;;;;3.73;1.67;;;;;;;;;;5047758;28;20200;-81
2022/07/07 09:33:00;;;;;;;2.70;1.47;;;;;;;;;;5030186;28;20191;-83
2022/07/07 09:38:23;;;;;;;2.57;0.90;;;;;;;;;;5027773;28;20267;-83
2022/07/07 09:40:54;;;;;;;6.50;2.07;;;;;;;;;;5031048;28;20210;-81
2022/07/07 09:43:23;;;;;;;8.00;2.03;;;;;;;;;;5036749;28;20199;-82
2022/07/07 09:46:19;;;;;;;4.07;2.03;;;;;;;;;;5037641;28;20230;-82
2022/07/07 09:48:52;;;;;;;11.03;1.93;;;;;;;;;;5036324;28;20303;-81
2022/07/07 09:51:24;;;;;;;9.67;1.70;;;;;;;;;;5025737;28;20210;-83
2022/07/07 09:54:04;;;;;;;3.07;1.73;;;;;;;;;;5033846;28;20210;-85
2022/07/07 09:56:38;;;;;;;4.70;1.50;;;;;;;;;;5037001;28;20206;-83
2022/07/07 09:59:08;;;;;;;3.90;1.63;;;;;;;;;;5029041;28;20314;-82
2022/07/07 10:01:42;;;;;;;3.90;1.50;;;;;;;;;;5032716;28;20230;-81
2022/07/07 10:04:17;;;;;;;1.93;1.23;;;;;;;;;;5044860;28;20869;-86
2022/07/07 10:07:01;;;;;;;3.20;1.17;;;;;;;;;;5045195;28;20260;-85
2022/07/07 10:09:38;;;;;;;6.97;0.80;;;;;;;;;;5036134;28;20202;-84
2022/07/07 10:12:10;;;;;;;3.57;0.80;;;;;;;;;;5026374;28;20253;-84
2022/07/07 10:14:45;;;;;;;2.63;1.37;;;;;;;;;;5037081;28;20230;-84
2022/07/07 10:17:18;;;;;;;2.67;1.37;;;;;;;;;;5028180;28;20233;-82
2022/07/07 10:19:47;;;;;;;4.47;2.20;;;;;;;;;;5037018;28;20252;-84
2022/07/07 10:22:26;;;;;;;1.40;1.30;;;;;;;;;;5025571;28;20220;-83
2022/07/07 10:24:55;;;;;;;4.10;1.77;;;;;;;;;;5050501;28;20242;-82
2022/07/07 10:27:24;;;;;;;2.67;1.47;;;;;;;;;;5038437;28;20213;-81
2022/07/07 10:29:54;;;;;;;4.23;1.77;;;;;;;;;;5049329;28;20205;-84
2022/07/07 10:32:32;;;;;;;2.07;0.87;;;;;;;;;;5029029;28;20266;-84
2022/07/07 10:35:09;;;;;;;7.73;1.87;;;;;;;;;;5026571;28;20208;-83
2022/07/07 10:37:47;;;;;;;4.53;1.73;;;;;;;;;;5027785;28;21276;-82
2022/07/07 10:40:20;;;;;;;4.03;2.20;;;;;;;;;;5024577;28;20196;-83
2022/07/07 10:43:00;;;;;;;7.47;2.23;;;;;;;;;;5030561;28;20214;-83
2022/07/07 10:45:30;;;;;;;6.33;2.10;;;;;;;;;;5025826;28;20290;-84
2022/07/07 10:48:00;;;;;;;6.33;2.57;;;;;;;;;;5042843;28;20195;-81
2022/07/07 10:50:31;;;;;;;4.40;1.77;;;;;;;;;;5030082;28;20211;-82
2022/07/07 10:53:02;;;;;;;4.57;1.70;;;;;;;;;;5028271;28;20213;-82
2022/07/07 10:56:06;;;;;;;2.77;1.07;;;;;;;;;;5028632;28;20207;-82
2022/07/07 10:59:01;;;;;;;5.17;2.50;;;;;;;;;;5044436;28;20203;-83
2022/07/07 11:01:32;;;;;;;7.03;1.70;;;;;;;;;;5037834;28;20222;-86
2022/07/07 11:04:08;;;;;;;3.33;1.53;;;;;;;;;;5031092;28;20217;-84
2022/07/07 11:07:05;;;;;;;4.07;1.23;;;;;;;;;;5046512;28;20202;-82
2022/07/07 11:09:48;;;;;;;2.53;0.57;;;;;;;;;;5025839;28;20269;-83
2022/07/07 11:12:38;;;;;;;0.90;0.80;;;;;;;;;;5044972;28;20212;-83
2022/07/07 11:15:27;;;;;;;1.93;1.10;;;;;;;;;;5046372;28;20229;-82
2022/07/07 11:18:09;;;;;;;3.53;1.40;;;;;;;;;;5045192;28;20303;-82
2022/07/07 11:20:51;;;;;;;6.63;2.33;;;;;;;;;;5046261;28;20235;-82
2022/07/07 11:23:22;;;;;;;7.17;1.97;;;;;;;;;;5016895;28;20272;-83
2022/07/07 11:25:55;;;;;;;4.43;1.60;;;;;;;;;;5019066;28;20207;-82
2022/07/07 11:28:28;;;;;;;4.17;2.00;;;;;;;;;;5013537;28;20209;-82
2022/07/07 11:31:05;;;;;;;3.10;1.27;;;;;;;;;;5028361;28;20266;-82
2022/07/07 11:33:40;;;;;;;4.80;1.53;;;;;;;;;;5030537;28;20211;-82
2022/07/07 11:39:38;;;;;;;5.13;1.73;;;;;;;;;;5006884;28;20230;-82
2022/07/07 11:42:07;;;;;;;4.73;1.63;;;;;;;;;;5017340;28;20229;-81
2022/07/07 11:44:36;;;;;;;7.97;1.87;;;;;;;;;;5025732;28;20207;-82
2022/07/07 11:47:05;;;;;;;3.03;2.10;;;;;;;;;;5021365;28;20238;-81
2022/07/07 11:49:33;;;;;;;2.43;1.37;;;;;;;;;;5005925;28;20208;-81
2022/07/07 11:52:04;;;;;;;3.93;1.53;;;;;;;;;;5009031;28;20278;-81
2022/07/07 11:54:33;;;;;;;3.67;1.70;;;;;;;;;;5008234;28;20201;-83
2022/07/07 11:57:02;;;;;;;3.60;1.80;;;;;;;;;;5007280;28;20289;-83
2022/07/07 11:59:30;;;;;;;1.13;0.80;;;;;;;;;;5014738;28;20206;-83
2022/07/07 12:02:00;;;;;;;9.43;2.30;;;;;;;;;;5012844;28;20218;-82
2022/07/07 12:04:35;;;;;;;3.90;1.33;;;;;;;;;;5023560;28;20210;-83
2022/07/07 12:07:10;;;;;;;2.70;1.13;;;;;;;;;;5007646;28;20237;-82
2022/07/07 12:09:39;;;;;;;2.10;1.47;;;;;;;;;;5013132;28;20241;-82
2022/07/07 12:12:17;;;;;;;5.07;1.80;;;;;;;;;;5010990;28;20194;-81
2022/07/07 12:14:45;;;;;;;4.20;1.43;;;;;;;;;;5012020;28;20202;-82
2022/07/07 12:17:14;;;;;;;9.60;2.03;;;;;;;;;;5012313;28;20203;-82
2022/07/07 12:19:49;;;;;;;5.97;2.17;;;;;;;;;;5013776;28;20264;-82
2022/07/07 12:22:33;;;;;;;7.97;1.77;;;;;;;;;;5031375;28;20232;-83
2022/07/07 12:31:19;;;;;;;7.30;1.30;;;;;;;;;;5023131;28;20214;-82
2022/07/07 12:37:33;;;;;;;4.80;2.20;;;;;;;;;;5027855;28;20204;-83
2022/07/07 12:40:39;;;;;;;0.97;0.87;;;;;;;;;;4985993;28;20222;-84
2022/07/07 12:43:18;;;;;;;3.87;1.40;;;;;;;;;;5043859;28;20309;-83
2022/07/07 12:45:50;;;;;;;1.87;1.53;;;;;;;;;;5035907;28;20206;-83
2022/07/07 12:48:21;;;;;;;6.27;1.60;;;;;;;;;;5023629;28;20208;-83
2022/07/07 12:51:04;;;;;;;4.07;1.33;;;;;;;;;;5035984;28;20197;-82
2022/07/07 12:53:36;;;;;;;8.97;2.40;;;;;;;;;;5037863;28;20203;-82
2022/07/07 12:56:10;;;;;;;2.37;1.73;;;;;;;;;;5039184;28;20208;-83
2022/07/07 13:01:40;;;;;;;3.77;1.50;;;;;;;;;;5044966;28;20201;-83
2022/07/07 13:04:22;;;;;;;1.83;0.83;;;;;;;;;;5035183;28;20209;-83
2022/07/07 13:06:57;;;;;;;5.50;2.50;;;;;;;;;;5027932;28;20202;-82
2022/07/07 13:09:29;;;;;;;8.93;3.10;;;;;;;;;;5030781;28;20205;-83
2022/07/07 13:12:06;;;;;;;10.60;2.17;;;;;;;;;;5026591;28;20217;-83
2022/07/07 13:14:34;;;;;;;1.60;1.27;;;;;;;;;;5036621;28;20209;-81
2022/07/07 13:17:04;;;;;;;4.77;1.63;;;;;;;;;;5038438;28;20318;-82
2022/07/07 13:19:32;;;;;;;9.27;2.70;;;;;;;;;;5031476;28;20206;-82
2022/07/07 13:22:03;;;;;;;2.27;1.50;;;;;;;;;;5046330;28;20265;-82
2022/07/07 13:24:32;;;;;;;4.90;2.43;;;;;;;;;;5026608;28;20223;-82
2022/07/07 13:27:01;;;;;;;8.43;1.83;;;;;;;;;;5032405;28;20227;-81
2022/07/07 13:29:31;;;;;;;7.17;1.57;;;;;;;;;;5022237;28;20214;-81
2022/07/07 13:32:00;;;;;;;1.60;1.13;;;;;;;;;;5036129;28;20302;-82
2022/07/07 13:34:29;;;;;;;5.77;2.27;;;;;;;;;;5031681;28;20214;-82
2022/07/07 13:36:57;;;;;;;8.13;3.87;;;;;;;;;;5035863;28;20264;-82
2022/07/07 13:39:26;;;;;;;5.67;2.10;;;;;;;;;;5035527;28;20213;-81
2022/07/07 13:41:55;;;;;;;7.50;1.70;;;;;;;;;;5033634;28;20201;-82
2022/07/07 13:44:42;;;;;;;4.37;1.83;;;;;;;;;;5034043;28;20207;-82
2022/07/07 13:47:14;;;;;;;6.97;2.50;;;;;;;;;;5034588;28;20212;-82
2022/07/07 13:49:43;;;;;;;4.17;2.27;;;;;;;;;;5028499;28;20202;-82
2022/07/07 13:52:11;;;;;;;4.37;2.20;;;;;;;;;;5033542;28;20286;-82
2022/07/07 13:54:42;;;;;;;4.93;2.43;;;;;;;;;;5032201;28;20207;-82
2022/07/07 13:57:12;;;;;;;3.03;1.67;;;;;;;;;;5046628;28;20291;-83
2022/07/07 13:59:44;;;;;;;3.50;1.67;;;;;;;;;;5035027;28;20280;-83
2022/07/07 14:02:13;;;;;;;2.83;1.50;;;;;;;;;;5036485;28;20209;-83
2022/07/07 14:04:49;;;;;;;10.57;3.77;;;;;;;;;;5037074;28;20206;-85
2022/07/07 14:07:18;;;;;;;4.93;1.90;;;;;;;;;;5034527;28;20205;-83
2022/07/07 14:09:46;;;;;;;2.87;1.13;;;;;;;;;;5046645;28;20212;-83
2022/07/07 14:12:15;;;;;;;1.63;1.53;;;;;;;;;;5033747;28;20267;-83
2022/07/07 14:14:45;;;;;;;6.67;2.37;;;;;;;;;;5032729;28;20197;-82
2022/07/07 14:17:14;;;;;;;24.57;3.97;;;;;;;;;;5030461;28;20209;-84
2022/07/07 14:19:43;;;;;;;4.47;1.97;;;;;;;;;;5033128;28;20277;-84
2022/07/07 14:22:13;;;;;;;5.87;2.60;;;;;;;;;;5030038;28;20273;-84
2022/07/07 14:24:44;;;;;;;10.53;2.50;;;;;;;;;;5035211;28;20224;-84
2022/07/07 14:27:16;;;;;;;5.50;1.93;;;;;;;;;;5036023;28;20202;-84
2022/07/07 14:29:47;;;;;;;7.47;1.83;;;;;;;;;;5024844;28;20199;-84
2022/07/07 14:32:15;;;;;;;3.87;2.00;;;;;;;;;;5033831;28;20211;-84
2022/07/07 14:34:44;;;;;;;6.70;2.80;;;;;;;;;;5035869;28;20198;-84
2022/07/07 14:37:12;;;;;;;2.50;1.27;;;;;;;;;;5035413;28;20232;-84
2022/07/07 14:39:41;;;;;;;2.77;2.43;;;;;;;;;;5035953;28;20207;-85
2022/07/07 14:42:10;;;;;;;2.90;1.40;;;;;;;;;;5028324;28;20202;-84
2022/07/07 14:44:38;;;;;;;1.33;1.23;;;;;;;;;;5033445;28;20285;-83
2022/07/07 14:47:09;;;;;;;4.93;1.47;;;;;;;;;;5036212;28;20320;-82
2022/07/07 14:49:37;;;;;;;4.17;2.40;;;;;;;;;;5038610;28;20260;-82
2022/07/07 14:52:07;;;;;;;4.70;1.73;;;;;;;;;;5036473;28;20256;-83
2022/07/07 14:54:35;;;;;;;3.33;1.60;;;;;;;;;;5031886;28;20205;-82
2022/07/07 14:57:05;;;;;;;3.50;1.33;;;;;;;;;;5043795;28;20224;-83
2022/07/07 14:59:34;;;;;;;5.47;1.87;;;;;;;;;;5032257;28;20205;-83
2022/07/07 15:02:02;;;;;;;3.43;1.60;;;;;;;;;;5035300;28;20291;-84
2022/07/07 15:04:33;;;;;;;4.10;1.87;;;;;;;;;;5032689;28;20215;-80
2022/07/07 15:07:01;;;;;;;3.90;2.30;;;;;;;;;;5048971;28;20223;-83
2022/07/07 15:09:30;;;;;;;4.63;2.07;;;;;;;;;;5033390;28;20204;-82
2022/07/07 15:11:59;;;;;;;2.53;1.50;;;;;;;;;;5034761;28;20205;-81
2022/07/07 15:14:27;;;;;;;2.80;1.33;;;;;;;;;;5034996;28;20206;-81
2022/07/07 15:16:56;;;;;;;7.93;2.23;;;;;;;;;;5052292;28;20218;-81
2022/07/07 15:19:24;;;;;;;3.03;1.33;;;;;;;;;;5051352;28;20207;-81
2022/07/07 15:21:54;;;;;;;2.53;1.10;;;;;;;;;;5032918;28;20215;-81
2022/07/07 15:24:23;;;;;;;4.87;1.67;;;;;;;;;;5036788;28;20251;-82